55°F Temp
32°F Dewpoint
41% Humidity
Temperature
5 MPH
8 KM/H
4 KTS
340°
North North
West

Wind Speed
Clear
Conditions
Pressure 1020 (hPa) - 30.11 (in)
Visibility 10.0 (mi) - 16.1 (km)

Current Conditions
KDZJ
Location Blairsville 6km (3.2mi)
Metar :KDZJ 171855Z AUTO 34004KT 10SM CLR 13/00 A3011 RMK AO2 T01281003
Mon 17th December 14:55 pm

Airport
  Metar Aviation API Data Provided by https://www.checkwx.com/ PHP scripts by weather34.com ©2018